Time;durP1;ratioP1;P1;durP2;ratioP2;P2;SDS_P1;SDS_P2;PMS_P1;PMS_P2;Temp;Humidity;BMP_temperature;BMP_pressure;BME280_temperature;BME280_humidity;BME280_pressure;Samples;Min_cycle;Max_cycle;Signal;HPM_P1;HPM_P2
2023/12/07 00:01:37;;;;;;;15.37;9.50;;;5.20;74.80;;;;;;5045794;28;20073;-68
2023/12/07 00:04:03;;;;;;;15.50;9.90;;;5.20;74.80;;;;;;5038358;28;20050;-68
2023/12/07 00:06:29;;;;;;;13.33;9.20;;;5.20;74.80;;;;;;5078880;28;20029;-68
2023/12/07 00:08:55;;;;;;;15.53;9.43;;;5.20;74.80;;;;;;5041325;28;20078;-68
2023/12/07 00:11:23;;;;;;;12.77;8.07;;;5.20;74.80;;;;;;5034598;28;20032;-67
2023/12/07 00:13:49;;;;;;;14.83;8.77;;;5.20;74.80;;;;;;5068246;28;20107;-68
2023/12/07 00:16:14;;;;;;;14.20;8.37;;;5.20;74.80;;;;;;5073932;28;20039;-67
2023/12/07 00:18:40;;;;;;;13.17;8.83;;;5.20;74.80;;;;;;5073253;28;20032;-68
2023/12/07 00:21:08;;;;;;;14.43;9.60;;;5.20;74.80;;;;;;5092900;28;20084;-68
2023/12/07 00:23:34;;;;;;;13.83;9.20;;;5.20;74.80;;;;;;5092180;28;20111;-68
2023/12/07 00:25:59;;;;;;;13.47;8.93;;;5.10;74.70;;;;;;5092229;28;20131;-67
2023/12/07 00:28:25;;;;;;;12.57;8.30;;;5.10;74.70;;;;;;5081776;28;20035;-68
2023/12/07 00:30:51;;;;;;;14.07;9.20;;;5.10;74.70;;;;;;5089948;28;20077;-68
2023/12/07 00:33:17;;;;;;;13.97;9.13;;;5.10;74.70;;;;;;5092451;28;20028;-67
2023/12/07 00:35:42;;;;;;;14.00;9.23;;;5.10;74.70;;;;;;5073358;28;20020;-67
2023/12/07 00:38:09;;;;;;;13.37;8.53;;;5.10;74.60;;;;;;5093590;28;20047;-68
2023/12/07 00:40:37;;;;;;;15.93;9.87;;;5.10;74.70;;;;;;5092495;28;20055;-67
2023/12/07 00:43:03;;;;;;;16.03;9.47;;;5.00;74.60;;;;;;5091558;28;20043;-67
2023/12/07 00:45:29;;;;;;;14.20;8.27;;;5.00;74.60;;;;;;5095168;28;20445;-67
2023/12/07 00:47:54;;;;;;;15.07;9.60;;;5.00;74.60;;;;;;5095660;28;20024;-67
2023/12/07 00:50:20;;;;;;;12.67;8.30;;;5.00;74.60;;;;;;5078710;28;20499;-67
2023/12/07 00:52:46;;;;;;;14.17;8.33;;;4.90;74.60;;;;;;5095808;28;20035;-67
2023/12/07 00:55:12;;;;;;;15.50;8.80;;;4.90;74.60;;;;;;5097061;28;20444;-67
2023/12/07 00:57:37;;;;;;;14.23;8.17;;;4.90;74.50;;;;;;5096466;28;20044;-67
2023/12/07 01:00:04;;;;;;;14.20;8.97;;;4.90;74.60;;;;;;5096666;28;20387;-67
2023/12/07 01:02:29;;;;;;;13.83;8.83;;;4.90;74.50;;;;;;5092210;28;20024;-67
2023/12/07 01:04:55;;;;;;;16.33;8.47;;;4.90;74.60;;;;;;5085878;28;20027;-67
2023/12/07 01:07:21;;;;;;;12.83;8.00;;;4.90;74.50;;;;;;5081158;28;20046;-67
2023/12/07 01:09:47;;;;;;;14.93;8.43;;;4.90;74.50;;;;;;5092101;28;20126;-67
2023/12/07 01:12:12;;;;;;;15.27;8.37;;;4.90;74.40;;;;;;5093810;28;20106;-68
2023/12/07 01:14:38;;;;;;;13.17;7.67;;;4.90;74.40;;;;;;5093112;28;20474;-67
2023/12/07 01:17:04;;;;;;;15.23;9.20;;;4.90;74.50;;;;;;5096699;28;20012;-67
2023/12/07 01:19:30;;;;;;;15.13;8.90;;;4.80;74.50;;;;;;5087182;28;20447;-67
2023/12/07 01:21:55;;;;;;;12.57;8.70;;;4.80;74.50;;;;;;5096351;28;20016;-67
2023/12/07 01:24:22;;;;;;;13.30;7.97;;;4.80;74.40;;;;;;5091390;28;20056;-67
2023/12/07 01:26:48;;;;;;;14.30;8.73;;;4.70;74.40;;;;;;5076241;28;20024;-67
2023/12/07 01:29:14;;;;;;;13.70;8.27;;;4.70;74.40;;;;;;5081430;28;20031;-67
2023/12/07 01:31:40;;;;;;;13.90;9.67;;;4.70;74.50;;;;;;5075066;28;20040;-67
2023/12/07 01:34:06;;;;;;;13.90;8.73;;;4.70;75.10;;;;;;5063144;28;20449;-67
2023/12/07 01:36:32;;;;;;;12.97;8.03;;;4.70;74.50;;;;;;5062867;28;20024;-67
2023/12/07 01:38:58;;;;;;;11.67;7.63;;;4.70;74.40;;;;;;5076630;28;20094;-67
2023/12/07 01:41:24;;;;;;;13.93;8.07;;;4.60;75.10;;;;;;5092339;28;20036;-67
2023/12/07 01:43:49;;;;;;;13.87;8.70;;;4.60;74.40;;;;;;5092468;28;20196;-67
2023/12/07 01:46:16;;;;;;;12.80;8.43;;;4.60;74.40;;;;;;5077228;28;20024;-67
2023/12/07 01:48:43;;;;;;;12.93;8.43;;;4.60;74.40;;;;;;5093324;28;20058;-67
2023/12/07 01:51:10;;;;;;;14.93;9.30;;;4.50;74.40;;;;;;5093808;28;20046;-67
2023/12/07 01:53:37;;;;;;;12.77;8.20;;;4.50;74.40;;;;;;5093998;28;20036;-67
2023/12/07 01:56:03;;;;;;;12.97;8.53;;;4.50;74.40;;;;;;5095559;28;20032;-67
2023/12/07 01:58:30;;;;;;;14.03;8.63;;;4.50;74.40;;;;;;5075542;28;20119;-67
2023/12/07 02:00:56;;;;;;;15.07;9.00;;;4.60;74.40;;;;;;5092169;28;20402;-67
2023/12/07 02:03:23;;;;;;;14.50;7.83;;;4.50;74.40;;;;;;5093491;28;20056;-67
2023/12/07 02:05:49;;;;;;;14.47;8.57;;;4.50;74.40;;;;;;5093363;28;20103;-67
2023/12/07 02:08:15;;;;;;;13.77;8.40;;;4.50;74.40;;;;;;5094785;28;20016;-67
2023/12/07 02:10:41;;;;;;;12.47;8.07;;;4.50;74.40;;;;;;5093461;28;20355;-67
2023/12/07 02:13:08;;;;;;;13.47;8.43;;;4.50;74.40;;;;;;5096940;28;20046;-67
2023/12/07 02:15:34;;;;;;;12.17;7.80;;;4.60;74.40;;;;;;5090494;28;20028;-67
2023/12/07 02:18:28;;;;;;;11.90;7.60;;;4.60;74.40;;;;;;5095178;28;20483;-67
2023/12/07 02:21:12;;;;;;;11.37;7.17;;;4.60;74.30;;;;;;5088685;28;20155;-67
2023/12/07 02:23:41;;;;;;;12.53;7.43;;;4.50;74.30;;;;;;5074203;28;20111;-67
2023/12/07 02:26:10;;;;;;;12.17;7.83;;;4.60;74.30;;;;;;5082786;28;20085;-67
2023/12/07 02:28:35;;;;;;;13.67;8.37;;;4.60;74.40;;;;;;5076850;28;20107;-67
2023/12/07 02:31:01;;;;;;;12.43;7.97;;;4.60;74.40;;;;;;5091472;28;20119;-67
2023/12/07 02:33:27;;;;;;;14.10;8.57;;;4.60;74.40;;;;;;5094060;28;20042;-68
2023/12/07 02:35:53;;;;;;;15.03;8.50;;;4.70;74.40;;;;;;5088943;28;20043;-67
2023/12/07 02:38:20;;;;;;;13.90;8.93;;;4.70;74.50;;;;;;5093582;28;20122;-67
2023/12/07 02:40:48;;;;;;;16.27;8.70;;;4.70;74.50;;;;;;5076053;28;20028;-67
2023/12/07 02:43:14;;;;;;;14.37;8.43;;;4.70;74.60;;;;;;5074199;28;20085;-67
2023/12/07 02:45:40;;;;;;;16.47;9.07;;;4.70;74.60;;;;;;5092023;28;20110;-67
2023/12/07 02:48:07;;;;;;;14.80;8.93;;;4.70;74.70;;;;;;5073955;28;20516;-67
2023/12/07 02:50:32;;;;;;;16.60;10.03;;;4.70;74.70;;;;;;5093553;28;20298;-67
2023/12/07 02:52:58;;;;;;;20.03;9.73;;;4.70;74.80;;;;;;5073845;28;20031;-67
2023/12/07 02:55:24;;;;;;;17.90;9.97;;;4.70;74.90;;;;;;5078210;28;20040;-67
2023/12/07 02:57:51;;;;;;;18.57;10.20;;;4.70;74.90;;;;;;5078392;28;20081;-67
2023/12/07 03:00:17;;;;;;;16.33;10.27;;;4.70;75.10;;;;;;5089132;28;20060;-67
2023/12/07 03:02:43;;;;;;;16.87;9.37;;;4.70;75.10;;;;;;5076926;28;20318;-67
2023/12/07 03:05:09;;;;;;;18.67;9.73;;;4.70;75.20;;;;;;5093469;28;20036;-67
2023/12/07 03:07:35;;;;;;;16.63;10.03;;;4.70;75.20;;;;;;5092899;28;20020;-67
2023/12/07 03:10:00;;;;;;;17.37;10.10;;;4.70;75.40;;;;;;5078107;28;20040;-67
2023/12/07 03:12:26;;;;;;;17.63;10.17;;;4.70;75.40;;;;;;5091714;28;20032;-67
2023/12/07 03:14:52;;;;;;;18.13;10.13;;;4.70;75.50;;;;;;5093616;28;20103;-67
2023/12/07 03:17:18;;;;;;;15.90;10.00;;;4.60;75.40;;;;;;5081205;28;20428;-67
2023/12/07 03:19:44;;;;;;;14.50;9.57;;;4.70;75.60;;;;;;5091243;28;20036;-67
2023/12/07 03:22:10;;;;;;;14.80;8.87;;;4.70;75.60;;;;;;5079313;28;20101;-67
2023/12/07 03:24:37;;;;;;;17.53;9.07;;;4.70;75.60;;;;;;5088248;28;20046;-67
2023/12/07 03:27:03;;;;;;;15.17;8.90;;;4.70;75.60;;;;;;5076689;28;20021;-67
2023/12/07 03:29:29;;;;;;;13.57;8.90;;;4.70;75.70;;;;;;5088537;28;20031;-67
2023/12/07 03:31:54;;;;;;;14.07;8.97;;;4.70;75.70;;;;;;5075071;28;20020;-67
2023/12/07 03:34:20;;;;;;;14.77;9.33;;;4.70;75.70;;;;;;5093276;28;20085;-67
2023/12/07 03:36:47;;;;;;;14.63;8.63;;;4.70;75.80;;;;;;5090873;28;20456;-67
2023/12/07 03:39:14;;;;;;;15.57;9.20;;;4.70;75.80;;;;;;5093519;28;20031;-67
2023/12/07 03:41:40;;;;;;;13.77;8.40;;;4.70;75.80;;;;;;5092589;28;20088;-67
2023/12/07 03:44:06;;;;;;;14.47;8.60;;;4.70;75.80;;;;;;5073526;28;20036;-67
2023/12/07 03:46:32;;;;;;;14.53;8.83;;;4.80;75.90;;;;;;5075315;28;20119;-67
2023/12/07 03:48:59;;;;;;;13.67;8.30;;;4.80;75.90;;;;;;5088380;28;20095;-67
2023/12/07 03:51:26;;;;;;;15.47;9.17;;;4.80;75.90;;;;;;5076676;28;20082;-67
2023/12/07 03:53:52;;;;;;;14.87;8.43;;;4.80;75.80;;;;;;5074704;28;20028;-67
2023/12/07 03:56:24;;;;;;;17.37;10.03;;;4.80;75.80;;;;;;5079168;28;20024;-67
2023/12/07 03:58:50;;;;;;;13.77;9.23;;;4.80;75.80;;;;;;5073417;28;20031;-67
2023/12/07 04:01:16;;;;;;;13.13;8.63;;;4.80;75.80;;;;;;5087645;28;20026;-67
2023/12/07 04:03:42;;;;;;;14.87;8.47;;;4.80;75.90;;;;;;5092663;28;20056;-67
2023/12/07 04:06:08;;;;;;;17.13;9.37;;;4.80;75.90;;;;;;5092253;28;20554;-67
2023/12/07 04:08:34;;;;;;;16.80;10.13;;;4.80;75.90;;;;;;5088287;28;20122;-67
2023/12/07 04:11:00;;;;;;;15.40;9.20;;;4.80;75.90;;;;;;5089918;28;20020;-67
2023/12/07 04:13:26;;;;;;;17.17;10.20;;;4.80;75.90;;;;;;5053935;28;20352;-67
2023/12/07 04:15:51;;;;;;;14.23;8.37;;;4.80;75.90;;;;;;5089647;28;20039;-68
2023/12/07 04:18:17;;;;;;;16.07;9.20;;;4.80;75.90;;;;;;5074653;28;20091;-67
2023/12/07 04:20:43;;;;;;;15.33;9.17;;;4.80;75.90;;;;;;5084406;28;20069;-67
2023/12/07 04:23:09;;;;;;;17.23;9.43;;;4.80;75.90;;;;;;5083112;28;20119;-67
2023/12/07 04:25:35;;;;;;;16.60;9.93;;;4.80;75.90;;;;;;5090593;28;20021;-67
2023/12/07 04:28:00;;;;;;;16.37;9.43;;;4.80;76.00;;;;;;5092403;28;20034;-67
2023/12/07 04:30:26;;;;;;;16.23;9.57;;;4.80;76.00;;;;;;5088767;28;20027;-67
2023/12/07 04:32:52;;;;;;;15.27;9.63;;;4.80;76.00;;;;;;5088740;28;20043;-67
2023/12/07 04:35:18;;;;;;;16.10;8.90;;;4.70;76.00;;;;;;5081863;28;20550;-67
2023/12/07 04:37:44;;;;;;;16.50;9.93;;;4.70;76.00;;;;;;5092148;28;20016;-67
2023/12/07 04:40:10;;;;;;;17.17;10.20;;;4.70;76.00;;;;;;5075271;28;20415;-67
2023/12/07 04:42:36;;;;;;;16.60;9.53;;;4.70;76.00;;;;;;5058091;28;20025;-67
2023/12/07 04:45:02;;;;;;;17.43;9.90;;;4.70;76.00;;;;;;5090718;28;20016;-67
2023/12/07 04:47:28;;;;;;;15.83;9.50;;;4.70;76.00;;;;;;5076141;28;20431;-67
2023/12/07 04:49:54;;;;;;;16.23;9.23;;;4.70;76.00;;;;;;5092551;28;20020;-67
2023/12/07 04:52:20;;;;;;;15.87;9.00;;;4.70;76.00;;;;;;5092219;28;20038;-67
2023/12/07 04:54:45;;;;;;;19.50;9.83;;;4.70;76.00;;;;;;5080474;28;20087;-67
2023/12/07 04:57:11;;;;;;;17.33;10.90;;;4.70;76.10;;;;;;5068678;28;20032;-67
2023/12/07 04:59:37;;;;;;;20.90;11.17;;;4.70;76.00;;;;;;5067568;28;20020;-67
2023/12/07 05:02:03;;;;;;;21.17;12.00;;;4.80;76.10;;;;;;5077672;28;20036;-67
2023/12/07 05:04:28;;;;;;;20.63;11.30;;;4.80;76.10;;;;;;5081484;28;20028;-67
2023/12/07 05:06:54;;;;;;;19.77;11.50;;;4.80;76.20;;;;;;5090653;28;20012;-67
2023/12/07 05:09:21;;;;;;;21.63;10.83;;;4.80;76.30;;;;;;5092991;28;20478;-67
2023/12/07 05:11:47;;;;;;;20.57;10.83;;;4.80;76.30;;;;;;5074404;28;20432;-67
2023/12/07 05:14:13;;;;;;;19.03;10.93;;;4.80;76.40;;;;;;5069827;28;20024;-67
2023/12/07 05:16:38;;;;;;;24.40;12.23;;;4.80;76.50;;;;;;5086719;28;20032;-67
2023/12/07 05:19:04;;;;;;;18.73;11.27;;;4.80;76.60;;;;;;5092935;28;20169;-67
2023/12/07 05:21:30;;;;;;;19.37;11.03;;;4.80;76.70;;;;;;5090999;28;20191;-67
2023/12/07 05:23:55;;;;;;;21.33;12.67;;;4.80;76.70;;;;;;5091249;28;20118;-67
2023/12/07 05:26:21;;;;;;;18.47;11.20;;;4.80;76.80;;;;;;5089530;28;20030;-67
2023/12/07 05:28:47;;;;;;;19.27;11.23;;;4.80;76.90;;;;;;5077155;28;20024;-67
2023/12/07 05:31:17;;;;;;;20.17;10.53;;;4.80;77.00;;;;;;5096029;28;20055;-67
2023/12/07 05:33:43;;;;;;;20.60;10.93;;;4.80;77.00;;;;;;5081685;28;20027;-67
2023/12/07 05:36:09;;;;;;;24.37;11.00;;;4.80;77.00;;;;;;5061023;28;20020;-67
2023/12/07 05:38:35;;;;;;;19.93;11.30;;;4.80;77.00;;;;;;5092633;28;20047;-67
2023/12/07 05:41:01;;;;;;;20.13;10.43;;;4.80;77.00;;;;;;5099272;28;20085;-67
2023/12/07 05:43:26;;;;;;;17.80;11.17;;;4.80;77.00;;;;;;5099311;28;20030;-67
2023/12/07 05:45:52;;;;;;;16.43;10.47;;;4.70;77.00;;;;;;5095074;28;20020;-67
2023/12/07 05:48:18;;;;;;;21.50;10.70;;;4.70;77.00;;;;;;5094245;28;20048;-67
2023/12/07 05:50:44;;;;;;;19.77;11.63;;;4.70;76.90;;;;;;5061164;28;20024;-67
2023/12/07 05:53:10;;;;;;;17.67;10.00;;;4.70;77.00;;;;;;5083784;28;20020;-67
2023/12/07 05:55:36;;;;;;;19.20;10.53;;;4.70;77.00;;;;;;5080173;28;20453;-67
2023/12/07 05:58:03;;;;;;;18.13;10.30;;;4.60;77.00;;;;;;5094417;28;20030;-67
2023/12/07 06:00:29;;;;;;;18.17;9.83;;;4.60;77.10;;;;;;5077898;28;20043;-67
2023/12/07 06:02:55;;;;;;;15.97;9.37;;;4.60;77.20;;;;;;5078416;28;20036;-67
2023/12/07 06:05:21;;;;;;;14.93;9.43;;;4.60;77.20;;;;;;5094299;28;20036;-67
2023/12/07 06:07:46;;;;;;;16.20;9.20;;;4.60;77.20;;;;;;5078711;28;20053;-67
2023/12/07 06:10:12;;;;;;;17.80;9.90;;;4.50;77.20;;;;;;5093557;28;20099;-67
2023/12/07 06:12:38;;;;;;;20.03;10.40;;;4.50;77.20;;;;;;5095200;28;20024;-67
2023/12/07 06:15:06;;;;;;;18.50;9.37;;;4.50;77.20;;;;;;5093849;28;20020;-67
2023/12/07 06:17:33;;;;;;;22.97;9.63;;;4.50;77.20;;;;;;5084142;28;20111;-67
2023/12/07 06:19:59;;;;;;;19.00;10.23;;;4.50;77.20;;;;;;5094840;28;20047;-67
2023/12/07 06:22:25;;;;;;;22.10;10.10;;;4.50;77.20;;;;;;5095857;28;20024;-67
2023/12/07 06:24:51;;;;;;;17.37;10.03;;;4.40;77.20;;;;;;5084080;28;20032;-67
2023/12/07 06:27:18;;;;;;;15.47;9.83;;;4.40;77.20;;;;;;5083415;28;20035;-67
2023/12/07 06:29:43;;;;;;;17.30;10.43;;;4.40;77.30;;;;;;5093344;28;20115;-67
2023/12/07 06:32:09;;;;;;;21.13;10.63;;;4.40;77.30;;;;;;5082109;28;20133;-67
2023/12/07 06:34:40;;;;;;;20.43;10.30;;;4.40;77.30;;;;;;5092466;28;20023;-67
2023/12/07 06:37:06;;;;;;;16.17;9.73;;;4.40;77.40;;;;;;5060515;28;20047;-67
2023/12/07 06:39:32;;;;;;;14.47;9.30;;;4.30;77.30;;;;;;5060556;28;20016;-67
2023/12/07 06:41:59;;;;;;;18.27;9.90;;;4.40;77.40;;;;;;5089750;28;20028;-67
2023/12/07 06:44:25;;;;;;;15.10;10.20;;;4.30;77.30;;;;;;5091642;28;20119;-67
2023/12/07 06:46:51;;;;;;;17.53;10.33;;;4.40;77.40;;;;;;5079110;28;20163;-67
2023/12/07 06:49:17;;;;;;;21.07;9.80;;;4.30;77.30;;;;;;5092873;28;20027;-67
2023/12/07 06:51:42;;;;;;;15.33;8.63;;;4.40;77.40;;;;;;5092314;28;20102;-67
2023/12/07 06:54:08;;;;;;;18.33;10.07;;;4.40;77.40;;;;;;5095472;28;20046;-66
2023/12/07 06:56:34;;;;;;;17.90;10.07;;;4.40;77.40;;;;;;5091688;28;20024;-66
2023/12/07 06:59:00;;;;;;;14.90;10.30;;;4.40;77.50;;;;;;5078969;28;20042;-66
2023/12/07 07:01:26;;;;;;;23.50;10.83;;;4.30;77.50;;;;;;5080791;28;20028;-66
2023/12/07 07:03:52;;;;;;;21.20;9.80;;;4.30;77.50;;;;;;5080108;28;20020;-66
2023/12/07 07:06:17;;;;;;;21.27;9.87;;;4.30;77.50;;;;;;5094415;28;20340;-66
2023/12/07 07:08:43;;;;;;;17.63;10.47;;;4.30;77.50;;;;;;5094060;28;20020;-66
2023/12/07 07:11:16;;;;;;;19.47;10.63;;;4.40;77.60;;;;;;5068198;28;20503;-66
2023/12/07 07:13:42;;;;;;;17.37;10.33;;;4.30;77.60;;;;;;5059259;28;20099;-66
2023/12/07 07:16:08;;;;;;;16.13;9.93;;;4.30;77.60;;;;;;5096554;28;20073;-66
2023/12/07 07:18:35;;;;;;;18.10;9.50;;;4.30;77.60;;;;;;5098480;28;20024;-67
2023/12/07 07:21:01;;;;;;;18.63;9.80;;;4.30;77.60;;;;;;5077221;28;20042;-66
2023/12/07 07:23:26;;;;;;;18.77;10.57;;;4.30;77.70;;;;;;5095245;28;20352;-67
2023/12/07 07:25:52;;;;;;;29.73;9.90;;;4.30;77.70;;;;;;5078103;28;20024;-66
2023/12/07 07:28:18;;;;;;;16.77;9.23;;;4.20;77.60;;;;;;5080071;28;20020;-66
2023/12/07 07:30:43;;;;;;;18.93;10.37;;;4.30;77.80;;;;;;5093647;28;20016;-67
2023/12/07 07:33:09;;;;;;;18.53;10.37;;;4.20;77.80;;;;;;5094007;28;20396;-66
2023/12/07 07:35:35;;;;;;;17.33;10.63;;;4.20;77.70;;;;;;5094602;28;20028;-66
2023/12/07 07:38:01;;;;;;;16.40;9.70;;;4.20;77.80;;;;;;5095162;28;20423;-67
2023/12/07 07:40:26;;;;;;;17.80;10.07;;;4.20;77.80;;;;;;5093849;28;20024;-66
2023/12/07 07:42:52;;;;;;;16.23;9.47;;;4.20;77.80;;;;;;5076290;28;20379;-67
2023/12/07 07:45:18;;;;;;;19.53;9.63;;;4.10;77.70;;;;;;5077034;28;20109;-66
2023/12/07 07:47:44;;;;;;;17.87;10.20;;;4.20;77.80;;;;;;5094208;28;20039;-67
2023/12/07 07:50:10;;;;;;;15.13;9.73;;;4.20;77.70;;;;;;5093302;28;20032;-66
2023/12/07 07:52:36;;;;;;;27.03;9.83;;;4.10;77.60;;;;;;5079240;28;20016;-66
2023/12/07 07:55:04;;;;;;;16.37;9.03;;;4.10;77.70;;;;;;5093588;28;20130;-66
2023/12/07 07:57:30;;;;;;;22.63;9.43;;;4.10;77.80;;;;;;5080880;28;20024;-66
2023/12/07 07:59:57;;;;;;;16.90;10.30;;;4.10;77.70;;;;;;5092119;28;20054;-66
2023/12/07 08:02:23;;;;;;;18.13;10.33;;;4.20;77.70;;;;;;5077435;28;20028;-66
2023/12/07 08:04:49;;;;;;;18.63;9.20;;;4.20;77.50;;;;;;5092132;28;20444;-66
2023/12/07 08:07:15;;;;;;;15.43;9.17;;;4.20;77.50;;;;;;5077555;28;20023;-66
2023/12/07 08:09:41;;;;;;;14.97;9.70;;;4.20;77.50;;;;;;5073802;28;20081;-66
2023/12/07 08:12:08;;;;;;;17.17;10.87;;;4.20;77.50;;;;;;5076846;28;20340;-65
2023/12/07 08:14:37;;;;;;;21.33;9.73;;;4.20;77.50;;;;;;5092632;28;20419;-72
2023/12/07 08:17:05;;;;;;;17.43;9.40;;;4.20;77.50;;;;;;5086674;28;20043;-64
2023/12/07 08:19:31;;;;;;;17.27;10.43;;;4.20;77.50;;;;;;5096007;28;20036;-63
2023/12/07 08:21:57;;;;;;;17.43;9.97;;;4.20;77.50;;;;;;5103950;28;20028;-64
2023/12/07 08:24:22;;;;;;;16.20;10.17;;;4.10;77.40;;;;;;5073582;28;20032;-65
2023/12/07 08:26:48;;;;;;;17.27;10.50;;;4.20;77.60;;;;;;5079061;28;20103;-69
2023/12/07 08:29:14;;;;;;;17.77;9.70;;;4.10;77.40;;;;;;5096960;28;20047;-62
2023/12/07 08:31:43;;;;;;;15.57;9.10;;;4.10;77.30;;;;;;5088145;28;20038;-64
2023/12/07 08:34:08;;;;;;;16.93;9.97;;;4.10;77.30;;;;;;5056516;28;20021;-65
2023/12/07 08:36:34;;;;;;;19.47;9.93;;;4.10;77.30;;;;;;5068421;28;20046;-66
2023/12/07 08:39:00;;;;;;;17.57;9.93;;;4.00;77.20;;;;;;5090346;28;20042;-65
2023/12/07 08:41:26;;;;;;;19.20;11.70;;;4.00;77.20;;;;;;5080262;28;20153;-65
2023/12/07 08:43:51;;;;;;;21.87;11.23;;;4.00;77.30;;;;;;5083128;28;20443;-66
2023/12/07 08:46:17;;;;;;;22.50;11.63;;;4.00;77.40;;;;;;5062722;28;20488;-66
2023/12/07 08:48:43;;;;;;;17.60;9.93;;;4.00;77.40;;;;;;5081970;28;20063;-66
2023/12/07 08:51:09;;;;;;;19.67;12.23;;;4.00;77.40;;;;;;5100764;28;20054;-65
2023/12/07 08:53:38;;;;;;;20.50;10.57;;;4.00;77.30;;;;;;5074927;28;20043;-63
2023/12/07 08:56:04;;;;;;;19.60;11.33;;;4.10;77.40;;;;;;5071596;28;20027;-63
2023/12/07 08:58:30;;;;;;;25.53;11.70;;;4.00;77.20;;;;;;5096211;28;20031;-64
2023/12/07 09:00:55;;;;;;;22.30;12.80;;;4.10;77.30;;;;;;5093655;28;20043;-66
2023/12/07 09:03:27;;;;;;;21.33;12.30;;;4.10;77.30;;;;;;5084299;28;20110;-65
2023/12/07 09:05:53;;;;;;;23.98;12.02;;;4.10;77.30;;;;;;5096471;28;20038;-65
2023/12/07 09:08:18;;;;;;;21.30;12.40;;;4.10;77.30;;;;;;5096364;28;20444;-68
2023/12/07 09:10:44;;;;;;;19.20;11.07;;;4.10;77.30;;;;;;5078907;28;20035;-66
2023/12/07 09:13:10;;;;;;;21.30;11.37;;;4.10;77.20;;;;;;5097431;28;20028;-65
2023/12/07 09:15:37;;;;;;;20.17;10.23;;;4.10;77.10;;;;;;5093703;28;20106;-66
2023/12/07 09:18:03;;;;;;;19.27;11.17;;;4.10;77.10;;;;;;5079526;28;20032;-69
2023/12/07 09:20:29;;;;;;;19.30;11.07;;;4.10;77.10;;;;;;5096584;28;20047;-67
2023/12/07 09:22:57;;;;;;;19.40;11.77;;;4.10;77.30;;;;;;5097364;28;20028;-68
2023/12/07 09:25:23;;;;;;;19.10;10.43;;;4.10;77.20;;;;;;5096419;28;20170;-67
2023/12/07 09:27:49;;;;;;;22.10;10.47;;;4.10;77.30;;;;;;5096355;28;20099;-68
2023/12/07 09:30:14;;;;;;;18.30;9.60;;;4.10;77.30;;;;;;5096908;28;20425;-66
2023/12/07 09:32:42;;;;;;;16.97;9.37;;;4.10;77.30;;;;;;5092059;28;20210;-67
2023/12/07 09:35:18;;;;;;;16.70;8.67;;;4.10;77.30;;;;;;5090160;28;20107;-64
2023/12/07 09:37:45;;;;;;;13.77;7.10;;;4.10;77.30;;;;;;5058771;28;20043;-66
2023/12/07 09:40:17;;;;;;;12.70;6.57;;;4.10;77.30;;;;;;5096590;28;20065;-65
2023/12/07 09:42:43;;;;;;;16.83;9.05;;;4.10;77.30;;;;;;5078660;28;20542;-67
2023/12/07 09:45:09;;;;;;;12.77;7.03;;;4.10;77.30;;;;;;5062120;28;20364;-67
2023/12/07 09:47:38;;;;;;;12.93;6.63;;;4.10;77.20;;;;;;5094783;28;20043;-65
2023/12/07 09:50:10;;;;;;;12.97;7.03;;;4.10;77.20;;;;;;5085254;28;20099;-67
2023/12/07 09:52:36;;;;;;;;;;;4.10;77.30;;;;;;5065513;28;20032;-65
2023/12/07 09:55:03;;;;;;;11.60;6.17;;;4.10;77.40;;;;;;5077979;28;20236;-66
2023/12/07 09:57:29;;;;;;;12.47;6.70;;;4.10;77.30;;;;;;5090212;28;20028;-65
2023/12/07 09:59:55;;;;;;;13.30;7.00;;;4.10;77.20;;;;;;5095147;28;20032;-65
2023/12/07 10:02:22;;;;;;;14.53;6.90;;;4.10;77.30;;;;;;5095630;28;20038;-67
2023/12/07 10:04:49;;;;;;;11.70;6.80;;;4.10;77.40;;;;;;5094947;28;20033;-65
2023/12/07 10:07:15;;;;;;;11.83;6.37;;;4.10;77.50;;;;;;5076640;28;20161;-66
2023/12/07 10:09:41;;;;;;;12.93;7.13;;;4.10;77.40;;;;;;5077748;28;20428;-67
2023/12/07 10:12:07;;;;;;;12.97;6.93;;;4.10;77.40;;;;;;5095772;28;20043;-66
2023/12/07 10:14:33;;;;;;;12.37;6.40;;;4.20;77.40;;;;;;5078848;28;20428;-64
2023/12/07 10:16:59;;;;;;;13.53;6.63;;;4.20;77.40;;;;;;5070344;28;20032;-65
2023/12/07 10:19:27;;;;;;;14.40;6.93;;;4.20;77.30;;;;;;5077692;28;20054;-64
2023/12/07 10:21:53;;;;;;;13.63;7.00;;;4.20;77.40;;;;;;5065473;28;20031;-67
2023/12/07 10:24:22;;;;;;;14.10;7.50;;;4.30;77.50;;;;;;5091245;28;20054;-67
2023/12/07 10:26:50;;;;;;;15.57;7.87;;;4.20;77.50;;;;;;5075031;28;20391;-67
2023/12/07 10:29:18;;;;;;;13.83;7.30;;;4.30;77.50;;;;;;5095692;28;20020;-67
2023/12/07 10:31:44;;;;;;;15.20;7.17;;;4.30;77.40;;;;;;5094283;28;20032;-67
2023/12/07 10:34:10;;;;;;;14.90;7.33;;;4.30;77.50;;;;;;5078144;28;20047;-67
2023/12/07 10:36:35;;;;;;;14.67;7.83;;;4.30;77.40;;;;;;5060622;28;20027;-68
2023/12/07 10:39:06;;;;;;;13.87;7.03;;;4.30;77.40;;;;;;5096066;28;20034;-67
2023/12/07 10:41:34;;;;;;;13.30;5.83;;;4.30;77.40;;;;;;5077693;28;20035;-67
2023/12/07 10:44:01;;;;;;;16.43;8.30;;;4.30;77.40;;;;;;5096105;28;20036;-68
2023/12/07 10:46:27;;;;;;;14.77;7.47;;;4.40;77.50;;;;;;5095876;28;20334;-68
2023/12/07 10:49:07;;;;;;;14.60;7.50;;;4.40;77.40;;;;;;5093977;28;20032;-68
2023/12/07 10:52:00;;;;;;;16.67;8.27;;;4.40;77.40;;;;;;5095551;28;20028;-68
2023/12/07 10:54:37;;;;;;;14.40;7.63;;;4.50;77.50;;;;;;5077569;28;20112;-67
2023/12/07 10:57:06;;;;;;;15.23;7.23;;;4.50;77.50;;;;;;5095612;28;20445;-68
2023/12/07 10:59:34;;;;;;;15.97;7.87;;;4.50;77.50;;;;;;5094558;28;20024;-68
2023/12/07 11:02:01;;;;;;;16.33;8.57;;;4.50;77.50;;;;;;5086633;28;20451;-68
2023/12/07 11:04:27;;;;;;;17.80;8.70;;;4.50;77.50;;;;;;5084498;28;20068;-67
2023/12/07 11:06:57;;;;;;;19.07;9.13;;;4.60;77.70;;;;;;5064051;28;20077;-67
2023/12/07 11:09:28;;;;;;;21.80;10.00;;;4.60;77.80;;;;;;5094503;28;20492;-67
2023/12/07 11:12:33;;;;;;;18.65;9.50;;;4.60;77.80;;;;;;5083631;28;20020;-67
2023/12/07 11:14:59;;;;;;;17.83;9.23;;;4.60;77.70;;;;;;5072035;28;20326;-68
2023/12/07 11:17:26;;;;;;;18.53;9.33;;;4.60;77.70;;;;;;5049364;28;20024;-68
2023/12/07 11:19:52;;;;;;;22.90;10.67;;;4.70;77.80;;;;;;5092650;28;20070;-68
2023/12/07 11:22:22;;;;;;;22.37;11.87;;;4.70;77.70;;;;;;5084097;28;20052;-68
2023/12/07 11:24:57;;;;;;;20.70;10.63;;;4.80;77.80;;;;;;5093674;28;20036;-68
2023/12/07 11:27:23;;;;;;;23.17;10.67;;;4.80;77.80;;;;;;5072186;28;20369;-68
2023/12/07 11:29:49;;;;;;;23.13;11.97;;;4.80;77.80;;;;;;5067434;28;20028;-68
2023/12/07 11:32:15;;;;;;;27.87;13.27;;;4.90;77.90;;;;;;5106126;28;20057;-68
2023/12/07 11:34:43;;;;;;;25.63;11.70;;;4.90;77.90;;;;;;5075669;28;20118;-66
2023/12/07 11:37:10;;;;;;;22.97;11.53;;;4.90;77.90;;;;;;5077253;28;20027;-66
2023/12/07 11:39:45;;;;;;;23.97;11.27;;;4.90;77.90;;;;;;5102444;28;20020;-67
2023/12/07 11:42:12;;;;;;;22.77;11.30;;;4.90;77.90;;;;;;5099184;28;20039;-67
2023/12/07 11:44:40;;;;;;;28.43;12.97;;;5.00;77.90;;;;;;5083665;28;20031;-67
2023/12/07 11:47:08;;;;;;;25.70;12.13;;;5.00;77.90;;;;;;5077328;28;20031;-67
2023/12/07 11:49:34;;;;;;;27.23;13.00;;;5.00;77.80;;;;;;5104313;28;20359;-67
2023/12/07 11:52:00;;;;;;;27.50;13.67;;;5.00;77.80;;;;;;5082961;28;20035;-67
2023/12/07 11:54:27;;;;;;;24.63;13.63;;;5.10;77.90;;;;;;5098549;28;20423;-67
2023/12/07 11:56:54;;;;;;;32.40;15.00;;;5.10;77.90;;;;;;5099805;28;20028;-67
2023/12/07 11:59:20;;;;;;;27.87;15.33;;;5.20;77.90;;;;;;5098643;28;20366;-67
2023/12/07 12:01:49;;;;;;;30.77;14.57;;;5.20;77.90;;;;;;5096625;28;20107;-67
2023/12/07 12:04:15;;;;;;;30.57;14.23;;;5.20;77.90;;;;;;5073365;28;20414;-67
2023/12/07 12:06:44;;;;;;;30.83;14.67;;;5.20;77.80;;;;;;5060085;28;20421;-67
2023/12/07 12:09:12;;;;;;;28.30;13.80;;;5.30;77.80;;;;;;5075100;28;20071;-67
2023/12/07 12:11:45;;;;;;;31.23;13.77;;;5.30;77.90;;;;;;5067255;28;20515;-67
2023/12/07 12:14:10;;;;;;;29.33;14.63;;;5.30;77.90;;;;;;5094708;28;20432;-68
2023/12/07 12:16:37;;;;;;;27.77;14.27;;;5.30;78.00;;;;;;5105925;28;20024;-67
2023/12/07 12:19:03;;;;;;;30.63;15.03;;;5.30;77.90;;;;;;5094713;28;20039;-67
2023/12/07 12:21:34;;;;;;;25.93;13.93;;;5.30;77.90;;;;;;5104941;28;20036;-67
2023/12/07 12:24:00;;;;;;;28.80;14.75;;;5.30;77.90;;;;;;5093004;28;20024;-67
2023/12/07 12:26:25;;;;;;;27.47;13.77;;;5.30;77.80;;;;;;5094180;28;20435;-67
2023/12/07 12:28:52;;;;;;;26.67;13.07;;;5.30;77.90;;;;;;5075301;28;20051;-68
2023/12/07 12:31:18;;;;;;;23.17;13.37;;;5.40;78.00;;;;;;5078688;28;20346;-67
2023/12/07 12:33:44;;;;;;;29.83;15.80;;;5.40;77.90;;;;;;5092859;28;20429;-67
2023/12/07 12:36:10;;;;;;;26.53;13.60;;;5.30;77.80;;;;;;5079787;28;20028;-67
2023/12/07 12:38:39;;;;;;;29.63;16.00;;;5.30;77.90;;;;;;5098224;28;20036;-67
2023/12/07 12:41:05;;;;;;;29.97;16.20;;;5.40;77.90;;;;;;5098063;28;20036;-67